Weather observations for the past three days for
Madison, Madison-Lac Qui Parle County Airport
Metric (Imperial)
Date Time (cdt) Wind (kph) Vis. (km) Weather Sky Cond. Temperature (ºC) Relative Humidity Wind Chill (°C) Heat Index (°C) Pressure Precipitation (cm)
Air Dwpt 6 hour altimeter (cm) sea level (mb) 1 hr 3 hr 6 hr
Max. Min.
10 16:15 N 17 G 30 16.09 Fair CLR 14 -7 23% 76.68 0.0
10 15:55 N 26 G 35 16.09 Fair CLR 14 -6 25% 76.68 0.0
10 15:35 NW 13 G 37 16.09 Fair CLR 14 -6 25% 76.68 0.0
10 15:15 NW 11 G 41 16.09 Fair CLR 14 -6 25% 76.68 0.0
10 14:55 NW 19 G 39 16.09 Fair CLR 14 -6 25% 76.68 0.0
10 14:35 N 24 G 39 16.09 Fair CLR 14 -6 25% 76.68 0.0
10 14:15 N 19 G 31 16.09 Fair CLR 14 -4 29% 76.68 0.0
10 13:55 N 19 G 33 16.09 Fair CLR 14 -6 25% 76.68 0.0
10 13:35 N 19 G 33 16.09 Fair CLR 14 -5 27% 76.68 0.0
10 13:15 N 17 G 39 16.09 Fair CLR 13 -5 28% 76.68 0.0
10 12:55 NW 22 G 35 16.09 Fair CLR 13 -4 31% 76.68 0.0
10 12:35 N 17 G 31 16.09 Partly Cloudy SCT060 13 -3 33% 76.66 0.0
10 12:15 N 13 G 35 16.09 Partly Cloudy SCT060 13 -3 33% 76.66 0.0
10 11:55 NW 17 G 28 16.09 Fair CLR 13 -3 33% 76.68 0.0
10 11:35 N 17 G 26 16.09 Fair CLR 13 -3 33% 76.68 0.0
10 11:15 N 20 G 30 16.09 Fair CLR 13 -3 33% 76.66 0.0
10 10:55 N 11 G 28 16.09 Fair CLR 12 -3 35% 76.66 0.0
10 10:35 N 15 G 28 16.09 Fair CLR 12 -3 35% 76.66 0.0
10 10:15 N 17 16.09 Fair CLR 12 -3 35% 76.63 0.0
10 09:55 N 17 G 28 16.09 Fair CLR 11 -3 38% 76.63 0.0
10 09:35 NE 19 16.09 Fair CLR 11 -3 38% 76.63 0.0
10 09:15 NE 20 16.09 Fair CLR 11 -3 38% 76.61 0.0
10 08:55 NE 20 16.09 Fair CLR 10 -3 40% 8 76.61 0.0
10 08:35 NE 15 16.09 Fair CLR 9 -2 46% 7 76.58 0.0
10 08:15 N 13 16.09 Fair CLR 8 -1 53% 6 76.58 0.0
10 07:55 NW 9 16.09 Fair CLR 6 -2 57% 4 76.56 0.0
10 07:35 NW 7 16.09 Fair CLR 5 -2 61% 4 76.53 0.0
10 07:15 NW 6 16.09 Fair CLR 4 -3 61% 76.5 0.0
10 06:55 NW 6 16.09 Fair CLR 3 -4 60% 76.48 0.0
10 06:35 N 9 16.09 Fair CLR 2 -4 65% -0 76.48 0.0
10 06:15 N 6 16.09 Fair CLR 1 -4 70% 76.45 0.0
10 05:55 NW 6 16.09 Fair CLR 1 -4 70% 76.43 0.0
10 05:35 Calm 16.09 Fair CLR 1 -4 70% 76.4 0.0
10 05:15 W 9 16.09 Fair CLR 1 -3 75% -2 76.38 0.0
10 04:55 SW 9 16.09 Fair CLR 0 -4 75% -3 76.38 0.0
10 04:35 SW 9 16.09 Fair CLR 1 -4 70% -2 76.38 0.0
10 04:15 SW 7 16.09 Fair CLR 1 -3 75% -1 76.38 0.0
10 03:55 Calm 16.09 Fair CLR 2 -3 70% 76.35 0.0
10 03:35 SW 6 16.09 Fair CLR 1 -3 75% 76.38 0.0
10 03:15 W 6 16.09 Fair CLR 2 -4 65% 76.38 0.0
10 02:55 Calm 16.09 Fair CLR 3 -5 56% 76.38 0.0
10 02:35 Calm 16.09 Fair CLR 2 -4 65% 76.35 0.0
10 02:15 W 7 16.09 Fair CLR 2 -4 65% 0 76.33 0.0
10 01:55 W 9 16.09 Fair CLR 3 -4 60% 1 76.33 0.0
10 01:35 W 11 16.09 Fair CLR 4 -4 56% 2 76.33 0.0
10 01:15 W 7 16.09 Fair CLR 3 -4 60% 1 76.33 0.0
10 00:55 W 9 16.09 Fair CLR 3 -4 60% 1 76.33 0.0
10 00:35 W 6 16.09 Fair CLR 3 -4 60% 76.3 0.0
10 00:15 W 7 16.09 Fair CLR 4 -3 61% 2 76.3 0.0
09 23:55 W 6 16.09 Fair CLR 5 -4 53% 76.3 0.0
09 23:35 W 9 16.09 Fair CLR 5 -4 53% 3 76.3 0.0
09 23:15 Calm 16.09 Fair CLR 7 -5 43% 76.3 0.0
09 22:55 Calm 16.09 Fair CLR 7 -6 39% 76.28 0.0
09 22:35 Calm 16.09 Fair CLR 8 -7 34% 76.28 0.0
09 22:15 N 9 16.09 Fair CLR 7 -6 39% 5 76.28 0.0
09 21:55 N 9 16.09 Fair CLR 9 -7 32% 8 76.25 0.0
09 21:35 N 11 16.09 Fair CLR 8 -7 34% 6 76.23 0.0
09 21:15 N 13 16.09 Fair CLR 9 -7 32% 7 76.2 0.0
09 20:55 N 13 16.09 Fair CLR 10 -7 30% 8 76.17 0.0
09 20:35 N 15 16.09 Fair CLR 12 -8 24% 76.17 0.0
09 20:15 N 19 16.09 Fair CLR 12 -8 24% 76.15 0.0
09 19:55 NW 17 G 30 16.09 Fair CLR 13 -7 24% 76.12 0.0
09 19:35 N 28 16.09 Fair CLR 13 -8 23% 76.12 0.0
09 19:15 N 26 G 37 16.09 Fair CLR 14 -8 21% 76.1 0.0
09 18:55 NW 24 G 37 16.09 Fair CLR 14 -8 21% 76.1 0.0
09 18:35 NW 28 G 37 16.09 Fair CLR 14 -7 23% 76.07 0.0
09 18:15 NW 26 G 44 16.09 Fair CLR 14 -8 21% 76.07 0.0
09 17:55 NW 30 G 41 16.09 Fair CLR 14 -7 23% 76.05 0.0
09 17:35 N 30 G 46 16.09 Fair CLR 14 -7 23% 76.05 0.0
09 17:15 N 24 G 43 16.09 Fair CLR 14 -7 23% 76.05 0.0
09 16:55 N 33 G 41 16.09 Fair and Breezy CLR 14 -7 23% 76.02 0.0
09 16:35 NW 26 G 41 16.09 Fair CLR 14 -6 25% 76.05 0.0
09 16:15 N 35 G 48 16.09 Fair and Breezy CLR 14 -6 25% 76.05 0.0
09 15:55 NW 33 G 41 16.09 Fair and Breezy CLR 14 -6 25% 76.05 0.0
09 15:35 NW 30 G 43 16.09 Fair CLR 14 -6 25% 76.02 0.0
09 15:15 N 30 G 39 16.09 Fair CLR 14 -5 27% 76.02 0.0
09 14:55 N 31 G 43 16.09 Fair CLR 13 -6 26% 76.02 0.0
09 14:35 N 31 G 46 16.09 Fair CLR 14 -5 27% 76.02 0.0
09 14:15 N 37 G 56 16.09 Fair and Breezy CLR 14 -6 25% 76.02 0.0
09 13:55 N 35 G 48 16.09 Fair and Breezy CLR 13 -6 26% 76.02 0.0
09 13:35 N 33 G 50 16.09 Fair and Breezy CLR 13 -6 26% 76 0.0
09 13:15 NW 41 G 48 16.09 Fair and Breezy CLR 13 -4 31% 75.97 0.0
09 12:55 N 31 G 52 16.09 Fair CLR 13 -4 31% 75.97 0.0
09 12:35 N 41 G 57 16.09 Fair and Breezy CLR 13 -3 33% 75.95 0.0
09 12:15 N 33 G 50 16.09 Fair and Breezy CLR 13 -4 31% 75.97 0.0
09 11:55 N 30 G 46 16.09 Fair CLR 12 -4 33% 75.95 0.0
09 11:35 N 33 G 41 16.09 Fair and Breezy CLR 12 -3 35% 75.92 0.0
09 11:15 N 33 G 46 16.09 Fair and Breezy CLR 12 -3 35% 75.92 0.0
09 10:55 N 28 G 39 16.09 Fair CLR 12 -2 38% 75.9 0.0
09 10:35 N 30 G 43 16.09 Fair CLR 12 -2 38% 75.9 0.0
09 10:15 N 33 G 41 16.09 Fair and Breezy CLR 12 -2 38% 75.84 0.0
09 09:55 N 30 G 39 16.09 Fair CLR 11 0 47% 75.84 0.0
09 09:35 N 28 16.09 Fair CLR 11 3 58% 75.82 0.0
09 09:15 N 31 16.09 Fair CLR 10 2 58% 7 75.82 0.0
09 08:55 N 30 G 41 16.09 Fair CLR 9 3 66% 6 75.79 0.0
09 08:35 N 28 G 43 16.09 Fair CLR 9 3 66% 6 75.77 0.0
09 08:15 N 26 16.09 Fair CLR 9 4 71% 6 75.74 0.0
09 07:55 NW 20 16.09 Fair CLR 8 5 82% 5 75.72 0.0
09 07:35 NW 20 16.09 Fair CLR 8 5 82% 5 75.69 0.0
09 07:15 N 22 16.09 Fair CLR 8 5 82% 5 75.67 0.0
09 06:55 N 20 16.09 Fair CLR 8 5 82% 5 75.64 0.0
09 06:35 N 24 16.09 Partly Cloudy SCT015 8 5 82% 5 75.62 0.0
09 06:15 N 24 16.09 Partly Cloudy SCT013 8 6 87% 5 75.57 0.0
09 05:55 NW 26 G 33 16.09 Partly Cloudy SCT015 9 6 82% 6 75.54 0.0
09 05:35 NW 19 16.09 Partly Cloudy SCT070 9 7 87% 7 75.49 0.0
09 05:15 W 15 16.09 Mostly Cloudy SCT060 BKN070 BKN090 9 7 87% 7 75.46 0.0
09 04:55 W 13 16.09 Light Rain SCT031 SCT047 SCT060 9 7 87% 7 75.46 0.0
09 04:35 W 20 16.09 Light Rain SCT033 SCT050 BKN060 9 6 82% 6 75.46 0.0
09 04:15 W 13 11.27 Light Rain SCT032 BKN050 OVC060 9 6 82% 7 75.44 0.0
09 03:55 W 9 16.09 Rain SCT048 BKN070 OVC090 9 6 82% 8 75.44 0.0
09 03:35 NW 11 16.09 Light Rain BKN100 10 5 71% 9 75.44 0.0
09 03:15 N 20 16.09 Partly Cloudy SCT110 10 5 71% 8 75.41 0.0
09 02:55 N 26 16.09 Mostly Cloudy BKN100 10 5 71% 7 75.41 0.0
09 02:35 N 31 16.09 Mostly Cloudy BKN110 10 2 58% 7 75.41 0.0
09 02:15 N 17 16.09 Fair CLR 9 0 54% 7 75.34 0.0
09 01:55 N 17 16.09 Partly Cloudy SCT100 9 -1 50% 7 75.29 0.0
09 01:35 W 9 16.09 Partly Cloudy SCT100 9 -1 50% 8 75.26 0.0
09 01:15 W 11 16.09 Partly Cloudy SCT110 11 -1 44% 75.26 0.0
09 00:55 SW 15 16.09 Partly Cloudy SCT110 10 -2 43% 8 75.26 0.0
09 00:35 SW 15 16.09 Fair CLR 9 -2 46% 7 75.26 0.0
09 00:15 SW 13 16.09 Fair CLR 9 -2 46% 7 75.29 0.0
08 23:55 SW 13 16.09 Fair CLR 9 -2 46% 7 75.29 0.0
08 23:35 SW 13 16.09 Fair CLR 9 -2 46% 7 75.31 0.0
08 23:15 SW 11 16.09 Fair CLR 9 -2 46% 8 75.34 0.0
08 22:55 SW 15 16.09 Fair CLR 10 -3 40% 8 75.36 0.0
08 22:35 SW 13 16.09 Fair CLR 10 -3 40% 8 75.39 0.0
08 22:15 SW 11 16.09 Fair CLR 11 -3 38% 75.39 0.0
08 21:55 W 6 16.09 Fair CLR 12 -3 35% 75.39 0.0
08 21:35 W 6 16.09 Fair CLR 12 -4 33% 75.39 0.0
08 21:15 NW 7 16.09 Fair CLR 15 -4 27% 75.39 0.0
08 20:55 N 9 16.09 Fair CLR 14 -4 29% 75.39 0.0
08 20:35 N 13 16.09 Fair CLR 16 -5 23% 75.39 0.0
08 20:15 N 22 G 30 16.09 Fair CLR 17 -4 24% 75.39 0.0
08 19:55 N 26 G 37 16.09 Fair CLR 18 -5 21% 75.39 0.0
08 19:35 N 28 16.09 Fair CLR 18 -6 19% 75.39 0.0
08 19:15 N 33 G 41 16.09 Fair and Breezy CLR 19 -7 17% 75.36 0.0
08 18:55 N 28 G 41 16.09 Fair CLR 19 -6 18% 75.36 0.0
08 18:35 N 35 G 41 16.09 Fair and Breezy CLR 20 -7 16% 75.36 0.0
08 18:15 NW 31 G 44 16.09 Fair CLR 20 -7 16% 75.36 0.0
08 17:55 NW 31 G 52 16.09 Fair CLR 21 -8 13% 75.36 0.0
08 17:35 NW 39 G 46 16.09 Fair and Breezy CLR 21 -8 13% 75.34 0.0
08 17:15 NW 37 G 54 16.09 Fair and Breezy CLR 21 -8 13% 75.34 0.0
08 16:55 NW 30 G 56 16.09 Fair CLR 21 -8 13% 75.34 0.0
08 16:35 NW 37 G 61 16.09 Fair and Breezy CLR 22 -8 13% 75.31 0.0
08 16:15 NW 43 G 56 16.09 Fair and Windy CLR 22 -6 15% 75.31 0.0
08 15:55 NW 35 G 57 16.09 Partly Cloudy and Breezy SCT090 21 -4 18% 75.31 0.0
08 15:35 NW 30 G 48 16.09 Partly Cloudy SCT090 22 -4 17% 75.34 0.0
08 15:15 NW 41 G 56 16.09 Partly Cloudy and Breezy SCT090 22 -5 16% 75.34 0.0
08 14:55 W 43 G 54 16.09 Fair and Windy CLR 21 -6 16% 75.34 0.0
08 14:35 W 31 G 56 16.09 Partly Cloudy SCT090 21 -6 16% 75.36 0.0
08 14:15 NW 26 G 44 16.09 Partly Cloudy SCT090 21 -4 18% 75.36 0.0
08 13:55 NW 30 G 44 16.09 Partly Cloudy SCT090 21 -3 20% 75.36 0.0
08 13:35 NW 22 G 46 16.09 Partly Cloudy SCT090 21 -4 18% 75.39 0.0
08 13:15 W 26 G 41 16.09 Partly Cloudy SCT090 21 -4 18% 75.39 0.0
08 12:55 W 26 G 44 16.09 Fair CLR 21 -5 17% 75.41 0.0
08 12:35 W 30 G 41 16.09 Fair CLR 20 -4 20% 75.44 0.0
08 12:15 W 31 G 37 16.09 Partly Cloudy SCT090 19 -8 15% 75.46 0.0
08 11:55 W 35 G 41 16.09 Partly Cloudy and Breezy SCT100 19 -7 17% 75.49 0.0
08 11:35 W 31 G 43 16.09 Fair CLR 19 -8 15% 75.46 0.0
08 11:15 W 28 G 41 16.09 Fair CLR 20 -8 14% 75.49 0.0
08 10:55 W 24 G 33 16.09 Fair CLR 19 -9 14% 75.51 0.0
08 10:35 W 22 G 35 16.09 Fair CLR 19 -8 15% 75.51 0.0
08 10:15 W 24 G 31 16.09 Fair CLR 18 -7 18% 75.54 0.0
08 09:55 W 9 16.09 Fair CLR 17 -4 24% 75.57 0.0
08 09:35 W 9 16.09 Fair CLR 16 -3 27% 75.59 0.0
08 09:15 Calm 16.09 Fair CLR 14 -2 33% 75.59 0.0
08 08:55 NW 6 16.09 Fair CLR 13 -2 36% 75.59 0.0
08 08:35 W 11 16.09 Fair CLR 12 -3 35% 75.62 0.0
08 08:15 NW 9 16.09 Partly Cloudy SCT100 11 -3 38% 75.62 0.0
08 07:55 W 9 16.09 Fair CLR 8 -3 46% 7 75.62 0.0
08 07:35 W 7 16.09 Fair CLR 9 -4 40% 8 75.62 0.0
08 07:15 W 6 16.09 Partly Cloudy SCT100 9 -4 40% 75.62 0.0
08 06:55 W 6 16.09 Overcast OVC100 8 -4 43% 75.62 0.0
08 06:35 SW 7 16.09 Overcast OVC100 7 -4 46% 6 75.59 0.0
08 06:15 SW 9 16.09 Overcast OVC100 7 -5 43% 5 75.59 0.0
08 05:55 SW 9 16.09 Mostly Cloudy BKN100 7 -6 39% 5 75.59 0.0
08 05:35 SW 9 16.09 Partly Cloudy SCT100 6 -6 42% 4 75.62 0.0
08 05:15 SW 6 16.09 Fair CLR 5 -6 45% 75.62 0.0
08 04:55 SW 7 16.09 Fair CLR 5 -5 49% 4 75.62 0.0
08 04:35 SW 11 16.09 Fair CLR 6 -6 42% 4 75.62 0.0
08 04:15 SW 6 16.09 Fair CLR 5 -5 49% 75.62 0.0
08 03:55 SW 7 16.09 Fair CLR 5 -4 53% 4 75.62 0.0
08 03:35 SW 7 16.09 Fair CLR 5 -5 49% 4 75.62 0.0
08 03:15 SW 7 16.09 Fair CLR 6 -5 46% 5 75.64 0.0
08 02:55 SW 9 16.09 Fair CLR 6 -6 42% 4 75.64 0.0
08 02:35 SW 9 16.09 Fair CLR 5 -6 45% 3 75.67 0.0
08 02:15 SW 7 16.09 Fair CLR 5 -6 45% 4 75.67 0.0
08 01:55 SW 7 16.09 Fair CLR 4 -6 48% 2 75.69 0.0
08 01:35 SW 6 16.09 Fair CLR 4 -5 52% 75.69 0.0
08 01:15 SW 9 16.09 Fair CLR 4 -6 48% 2 75.69 0.0
08 00:55 S 13 16.09 Fair CLR 6 -7 39% 4 75.69 0.0
08 00:35 S 13 16.09 Fair CLR 5 -7 42% 2 75.69 0.0
08 00:15 S 11 16.09 Fair CLR 5 -7 42% 3 75.72 0.0
07 23:55 S 7 16.09 Fair CLR 5 -7 42% 4 75.72 0.0
07 23:35 SW 9 16.09 Fair CLR 6 -6 42% 4 75.74 0.0
07 23:15 SW 9 16.09 Fair CLR 7 -7 37% 5 75.74 0.0
07 22:55 S 7 16.09 Fair CLR 7 -5 43% 6 75.74 0.0
07 22:35 S 7 16.09 Fair CLR 8 -7 34% 7 75.74 0.0
07 22:15 SW 6 16.09 Fair CLR 9 -3 43% 75.74 0.0
07 21:55 Calm 16.09 Fair CLR 9 -8 29% 75.74 0.0
07 21:35 Calm 16.09 Fair CLR 11 -9 24% 75.74 0.0
07 21:15 Calm 16.09 Fair CLR 13 -12 16% 75.74 0.0
07 20:55 Calm 16.09 Fair CLR 13 -12 16% 75.74 0.0
07 20:35 NW 6 16.09 Fair CLR 12 -11 19% 75.74 0.0
07 20:15 NW 11 16.09 Fair CLR 13 -9 21% 75.72 0.0
07 19:55 NW 9 16.09 Fair CLR 14 -9 20% 75.72 0.0
07 19:35 NW 11 16.09 Fair CLR 14 -10 18% 75.72 0.0
07 19:15 NW 17 G 26 16.09 Fair CLR 15 -11 16% 75.72 0.0
07 18:55 NW 19 16.09 Fair CLR 16 -12 13% 75.72 0.0
07 18:35 NW 20 G 30 16.09 Fair CLR 16 -11 15% 75.74 0.0
07 18:15 W 19 G 33 16.09 Fair CLR 16 -12 13% 75.74 0.0
07 17:55 W 15 G 31 16.09 Fair CLR 16 -12 13% 75.74 0.0
07 17:35 NW 24 G 33 16.09 Fair CLR 16 -12 13% 75.74 0.0
07 17:15 NW 17 G 33 16.09 Fair CLR 16 -12 13% 75.74 0.0
07 16:55 NW 24 G 37 16.09 Fair CLR 16 -13 12% 75.77 0.0
07 16:35 NW 17 G 35 16.09 Fair CLR 16 -12 13% 75.77 0.0
Date Time (cdt) Wind (kph) Vis. (km) Weather Sky Cond. Air Dwpt Max. Min. Relative Humidity Wind Chill (°C) Heat Index (°C) altimeter (cm) sea level (mb) 1 hr 3 hr 6 hr
6 hour
Temperature (ºC) Pressure Precipitation (cm)